sensor_id;sensor_type;location;lat;lon;timestamp;temperature;humidity
3727;DHT22;1879;45.876;12.300;2023-04-07T00:01:01;7.90;92.50
3727;DHT22;1879;45.876;12.300;2023-04-07T00:03:28;7.90;92.50
3727;DHT22;1879;45.876;12.300;2023-04-07T00:05:55;7.90;93.30
3727;DHT22;1879;45.876;12.300;2023-04-07T00:08:22;7.90;93.20
3727;DHT22;1879;45.876;12.300;2023-04-07T00:10:50;7.90;93.20
3727;DHT22;1879;45.876;12.300;2023-04-07T00:13:17;8.00;93.20
3727;DHT22;1879;45.876;12.300;2023-04-07T00:15:44;8.00;92.70
3727;DHT22;1879;45.876;12.300;2023-04-07T00:18:11;8.00;92.60
3727;DHT22;1879;45.876;12.300;2023-04-07T00:20:38;8.00;92.90
3727;DHT22;1879;45.876;12.300;2023-04-07T00:23:05;7.90;94.20
3727;DHT22;1879;45.876;12.300;2023-04-07T00:25:32;7.70;95.60
3727;DHT22;1879;45.876;12.300;2023-04-07T00:28:00;7.60;95.80
3727;DHT22;1879;45.876;12.300;2023-04-07T00:30:27;7.70;95.30
3727;DHT22;1879;45.876;12.300;2023-04-07T00:32:54;7.60;94.60
3727;DHT22;1879;45.876;12.300;2023-04-07T00:35:21;7.60;94.20
3727;DHT22;1879;45.876;12.300;2023-04-07T00:37:48;7.70;94.00
3727;DHT22;1879;45.876;12.300;2023-04-07T00:40:16;7.70;93.80
3727;DHT22;1879;45.876;12.300;2023-04-07T00:42:43;7.70;93.60
3727;DHT22;1879;45.876;12.300;2023-04-07T00:45:11;7.80;93.70
3727;DHT22;1879;45.876;12.300;2023-04-07T00:47:39;7.70;93.90
3727;DHT22;1879;45.876;12.300;2023-04-07T00:50:07;7.80;93.90
3727;DHT22;1879;45.876;12.300;2023-04-07T00:52:34;7.70;93.80
3727;DHT22;1879;45.876;12.300;2023-04-07T00:55:02;7.70;93.70
3727;DHT22;1879;45.876;12.300;2023-04-07T00:57:29;7.70;93.00
3727;DHT22;1879;45.876;12.300;2023-04-07T00:59:56;7.60;93.50
3727;DHT22;1879;45.876;12.300;2023-04-07T01:02:30;7.50;94.90
3727;DHT22;1879;45.876;12.300;2023-04-07T01:05:06;7.40;96.60
3727;DHT22;1879;45.876;12.300;2023-04-07T01:07:38;7.30;97.80
3727;DHT22;1879;45.876;12.300;2023-04-07T01:10:11;7.30;96.90
3727;DHT22;1879;45.876;12.300;2023-04-07T01:12:46;7.30;97.00
3727;DHT22;1879;45.876;12.300;2023-04-07T01:15:21;7.20;98.10
3727;DHT22;1879;45.876;12.300;2023-04-07T01:17:57;7.00;99.90
3727;DHT22;1879;45.876;12.300;2023-04-07T01:20:26;6.90;99.90
3727;DHT22;1879;45.876;12.300;2023-04-07T01:22:56;6.90;99.90
3727;DHT22;1879;45.876;12.300;2023-04-07T01:28:38;6.90;99.90
3727;DHT22;1879;45.876;12.300;2023-04-07T01:31:08;6.90;99.90
3727;DHT22;1879;45.876;12.300;2023-04-07T01:33:36;6.90;99.90
3727;DHT22;1879;45.876;12.300;2023-04-07T01:36:06;6.80;99.90
3727;DHT22;1879;45.876;12.300;2023-04-07T01:38:34;6.70;99.90
3727;DHT22;1879;45.876;12.300;2023-04-07T01:41:02;6.70;99.90
3727;DHT22;1879;45.876;12.300;2023-04-07T01:43:30;6.60;99.90
3727;DHT22;1879;45.876;12.300;2023-04-07T01:45:58;6.60;99.90
3727;DHT22;1879;45.876;12.300;2023-04-07T01:48:29;6.60;99.90
3727;DHT22;1879;45.876;12.300;2023-04-07T01:50:56;6.60;99.90
3727;DHT22;1879;45.876;12.300;2023-04-07T01:53:24;6.50;99.90
3727;DHT22;1879;45.876;12.300;2023-04-07T01:55:52;6.50;99.90
3727;DHT22;1879;45.876;12.300;2023-04-07T01:58:20;6.50;99.90
3727;DHT22;1879;45.876;12.300;2023-04-07T02:00:47;6.60;99.90
3727;DHT22;1879;45.876;12.300;2023-04-07T02:03:19;6.60;99.90
3727;DHT22;1879;45.876;12.300;2023-04-07T02:05:51;6.70;99.90
3727;DHT22;1879;45.876;12.300;2023-04-07T02:08:20;6.70;99.90
3727;DHT22;1879;45.876;12.300;2023-04-07T02:10:50;6.80;99.90
3727;DHT22;1879;45.876;12.300;2023-04-07T02:13:19;6.80;99.90
3727;DHT22;1879;45.876;12.300;2023-04-07T02:15:47;6.80;99.90
3727;DHT22;1879;45.876;12.300;2023-04-07T02:18:16;6.60;99.90
3727;DHT22;1879;45.876;12.300;2023-04-07T02:20:48;6.40;99.90
3727;DHT22;1879;45.876;12.300;2023-04-07T02:23:16;6.20;99.90
3727;DHT22;1879;45.876;12.300;2023-04-07T02:25:43;6.10;99.90
3727;DHT22;1879;45.876;12.300;2023-04-07T02:28:10;6.20;99.90
3727;DHT22;1879;45.876;12.300;2023-04-07T02:30:37;6.20;99.90
3727;DHT22;1879;45.876;12.300;2023-04-07T02:33:04;6.30;99.90
3727;DHT22;1879;45.876;12.300;2023-04-07T02:35:31;6.40;99.90
3727;DHT22;1879;45.876;12.300;2023-04-07T02:37:59;6.50;99.90
3727;DHT22;1879;45.876;12.300;2023-04-07T02:40:26;6.50;99.90
3727;DHT22;1879;45.876;12.300;2023-04-07T02:42:54;6.60;99.70
3727;DHT22;1879;45.876;12.300;2023-04-07T02:45:21;6.60;99.70
3727;DHT22;1879;45.876;12.300;2023-04-07T02:47:48;6.60;99.90
3727;DHT22;1879;45.876;12.300;2023-04-07T02:50:15;6.50;99.80
3727;DHT22;1879;45.876;12.300;2023-04-07T02:52:42;6.50;99.60
3727;DHT22;1879;45.876;12.300;2023-04-07T02:55:11;6.40;99.50
3727;DHT22;1879;45.876;12.300;2023-04-07T02:57:38;6.40;99.90
3727;DHT22;1879;45.876;12.300;2023-04-07T03:00:06;6.30;99.60
3727;DHT22;1879;45.876;12.300;2023-04-07T03:02:33;6.20;99.50
3727;DHT22;1879;45.876;12.300;2023-04-07T03:05:00;6.10;99.40
3727;DHT22;1879;45.876;12.300;2023-04-07T03:07:28;6.10;99.80
3727;DHT22;1879;45.876;12.300;2023-04-07T03:09:56;6.10;99.90
3727;DHT22;1879;45.876;12.300;2023-04-07T03:12:24;6.00;99.90
3727;DHT22;1879;45.876;12.300;2023-04-07T03:14:51;6.10;99.90
3727;DHT22;1879;45.876;12.300;2023-04-07T03:17:18;6.10;99.90
3727;DHT22;1879;45.876;12.300;2023-04-07T03:19:45;6.20;99.90
3727;DHT22;1879;45.876;12.300;2023-04-07T03:22:12;6.10;99.90
3727;DHT22;1879;45.876;12.300;2023-04-07T03:24:39;6.10;99.90
3727;DHT22;1879;45.876;12.300;2023-04-07T03:27:06;6.10;99.90
3727;DHT22;1879;45.876;12.300;2023-04-07T03:29:35;6.10;99.90
3727;DHT22;1879;45.876;12.300;2023-04-07T03:32:02;6.10;99.90
3727;DHT22;1879;45.876;12.300;2023-04-07T03:34:29;6.20;99.90
3727;DHT22;1879;45.876;12.300;2023-04-07T03:36:55;6.20;99.90
3727;DHT22;1879;45.876;12.300;2023-04-07T03:39:22;6.20;99.90
3727;DHT22;1879;45.876;12.300;2023-04-07T03:41:50;6.20;99.90
3727;DHT22;1879;45.876;12.300;2023-04-07T03:44:17;6.20;99.90
3727;DHT22;1879;45.876;12.300;2023-04-07T03:46:45;6.10;99.90
3727;DHT22;1879;45.876;12.300;2023-04-07T03:49:12;6.10;99.90
3727;DHT22;1879;45.876;12.300;2023-04-07T03:51:39;6.00;99.90
3727;DHT22;1879;45.876;12.300;2023-04-07T03:54:06;6.00;99.90
3727;DHT22;1879;45.876;12.300;2023-04-07T03:56:33;5.90;99.90
3727;DHT22;1879;45.876;12.300;2023-04-07T03:59:00;5.90;99.90
3727;DHT22;1879;45.876;12.300;2023-04-07T04:01:27;5.90;99.90
3727;DHT22;1879;45.876;12.300;2023-04-07T04:03:55;5.80;99.90
3727;DHT22;1879;45.876;12.300;2023-04-07T04:06:22;5.80;99.90
3727;DHT22;1879;45.876;12.300;2023-04-07T04:08:51;5.80;99.90
3727;DHT22;1879;45.876;12.300;2023-04-07T04:11:18;5.80;99.90
3727;DHT22;1879;45.876;12.300;2023-04-07T04:13:46;5.80;99.90
3727;DHT22;1879;45.876;12.300;2023-04-07T04:16:13;5.80;99.90
3727;DHT22;1879;45.876;12.300;2023-04-07T04:18:40;5.80;99.90
3727;DHT22;1879;45.876;12.300;2023-04-07T04:21:08;5.90;99.90
3727;DHT22;1879;45.876;12.300;2023-04-07T04:23:35;5.90;99.90
3727;DHT22;1879;45.876;12.300;2023-04-07T04:26:02;5.90;99.90
3727;DHT22;1879;45.876;12.300;2023-04-07T04:28:29;5.90;99.90
3727;DHT22;1879;45.876;12.300;2023-04-07T04:30:56;5.90;99.90
3727;DHT22;1879;45.876;12.300;2023-04-07T04:33:23;5.90;99.90
3727;DHT22;1879;45.876;12.300;2023-04-07T04:35:50;5.90;99.90
3727;DHT22;1879;45.876;12.300;2023-04-07T04:38:19;5.90;99.90
3727;DHT22;1879;45.876;12.300;2023-04-07T04:40:46;5.90;99.90
3727;DHT22;1879;45.876;12.300;2023-04-07T04:43:13;5.80;99.90
3727;DHT22;1879;45.876;12.300;2023-04-07T04:45:40;5.80;99.90
3727;DHT22;1879;45.876;12.300;2023-04-07T04:48:07;5.70;99.90
3727;DHT22;1879;45.876;12.300;2023-04-07T04:50:35;5.70;99.90
3727;DHT22;1879;45.876;12.300;2023-04-07T04:53:02;5.60;99.90
3727;DHT22;1879;45.876;12.300;2023-04-07T04:55:30;5.60;99.90
3727;DHT22;1879;45.876;12.300;2023-04-07T04:57:57;5.50;99.90
3727;DHT22;1879;45.876;12.300;2023-04-07T05:00:25;5.50;99.90
3727;DHT22;1879;45.876;12.300;2023-04-07T05:02:52;5.60;99.90
3727;DHT22;1879;45.876;12.300;2023-04-07T05:05:19;5.70;99.90
3727;DHT22;1879;45.876;12.300;2023-04-07T05:07:45;5.80;99.90
3727;DHT22;1879;45.876;12.300;2023-04-07T05:10:12;5.90;99.90
3727;DHT22;1879;45.876;12.300;2023-04-07T05:12:42;6.00;99.90
3727;DHT22;1879;45.876;12.300;2023-04-07T05:15:09;6.10;99.90
3727;DHT22;1879;45.876;12.300;2023-04-07T05:17:36;6.10;99.90
3727;DHT22;1879;45.876;12.300;2023-04-07T05:20:04;6.10;99.90
3727;DHT22;1879;45.876;12.300;2023-04-07T05:22:31;6.00;99.90
3727;DHT22;1879;45.876;12.300;2023-04-07T05:24:58;5.90;99.90
3727;DHT22;1879;45.876;12.300;2023-04-07T05:27:25;5.90;99.90
3727;DHT22;1879;45.876;12.300;2023-04-07T05:29:54;5.90;99.90
3727;DHT22;1879;45.876;12.300;2023-04-07T05:32:21;6.00;99.90
3727;DHT22;1879;45.876;12.300;2023-04-07T05:34:47;6.00;99.90
3727;DHT22;1879;45.876;12.300;2023-04-07T05:37:15;6.10;99.90
3727;DHT22;1879;45.876;12.300;2023-04-07T05:39:42;6.10;99.90
3727;DHT22;1879;45.876;12.300;2023-04-07T05:42:09;6.20;99.90
3727;DHT22;1879;45.876;12.300;2023-04-07T05:44:38;6.20;99.90
3727;DHT22;1879;45.876;12.300;2023-04-07T05:47:07;6.30;99.90
3727;DHT22;1879;45.876;12.300;2023-04-07T05:49:34;6.40;99.90
3727;DHT22;1879;45.876;12.300;2023-04-07T05:52:01;6.50;99.90
3727;DHT22;1879;45.876;12.300;2023-04-07T05:54:30;6.60;99.90
3727;DHT22;1879;45.876;12.300;2023-04-07T05:56:57;6.70;99.90
3727;DHT22;1879;45.876;12.300;2023-04-07T05:59:24;6.80;99.90
3727;DHT22;1879;45.876;12.300;2023-04-07T06:01:51;7.00;99.90
3727;DHT22;1879;45.876;12.300;2023-04-07T06:04:19;7.00;99.90
3727;DHT22;1879;45.876;12.300;2023-04-07T06:06:49;7.10;99.90
3727;DHT22;1879;45.876;12.300;2023-04-07T06:09:17;7.20;99.90
3727;DHT22;1879;45.876;12.300;2023-04-07T06:11:44;7.30;99.90
3727;DHT22;1879;45.876;12.300;2023-04-07T06:14:11;7.30;99.90
3727;DHT22;1879;45.876;12.300;2023-04-07T06:16:39;7.40;99.90
3727;DHT22;1879;45.876;12.300;2023-04-07T06:19:09;7.50;99.90
3727;DHT22;1879;45.876;12.300;2023-04-07T06:21:40;7.60;99.90
3727;DHT22;1879;45.876;12.300;2023-04-07T06:24:10;7.70;99.60
3727;DHT22;1879;45.876;12.300;2023-04-07T06:26:39;7.80;99.10
3727;DHT22;1879;45.876;12.300;2023-04-07T06:29:08;7.90;98.80
3727;DHT22;1879;45.876;12.300;2023-04-07T06:31:37;8.00;98.50
3727;DHT22;1879;45.876;12.300;2023-04-07T06:34:06;8.10;98.80
3727;DHT22;1879;45.876;12.300;2023-04-07T06:36:34;8.30;99.20
3727;DHT22;1879;45.876;12.300;2023-04-07T06:39:05;8.40;99.00
3727;DHT22;1879;45.876;12.300;2023-04-07T06:41:34;8.50;98.60
3727;DHT22;1879;45.876;12.300;2023-04-07T06:44:04;8.70;97.90
3727;DHT22;1879;45.876;12.300;2023-04-07T06:46:33;8.80;97.30
3727;DHT22;1879;45.876;12.300;2023-04-07T06:49:02;9.00;96.20
3727;DHT22;1879;45.876;12.300;2023-04-07T06:51:31;9.20;94.70
3727;DHT22;1879;45.876;12.300;2023-04-07T06:54:00;9.30;93.60
3727;DHT22;1879;45.876;12.300;2023-04-07T06:56:31;9.40;92.90
3727;DHT22;1879;45.876;12.300;2023-04-07T06:59:00;9.50;93.00
3727;DHT22;1879;45.876;12.300;2023-04-07T07:01:29;9.60;91.80
3727;DHT22;1879;45.876;12.300;2023-04-07T07:03:58;9.70;91.20
3727;DHT22;1879;45.876;12.300;2023-04-07T07:06:28;9.70;90.20
3727;DHT22;1879;45.876;12.300;2023-04-07T07:08:57;9.80;90.20
3727;DHT22;1879;45.876;12.300;2023-04-07T07:11:25;9.90;89.80
3727;DHT22;1879;45.876;12.300;2023-04-07T07:13:55;9.90;89.20
3727;DHT22;1879;45.876;12.300;2023-04-07T07:16:24;10.00;88.50
3727;DHT22;1879;45.876;12.300;2023-04-07T07:18:54;10.10;88.70
3727;DHT22;1879;45.876;12.300;2023-04-07T07:21:23;10.20;88.60
3727;DHT22;1879;45.876;12.300;2023-04-07T07:23:51;10.10;87.90
3727;DHT22;1879;45.876;12.300;2023-04-07T07:26:20;10.10;88.10
3727;DHT22;1879;45.876;12.300;2023-04-07T07:28:49;10.20;88.40
3727;DHT22;1879;45.876;12.300;2023-04-07T07:31:20;10.20;88.40
3727;DHT22;1879;45.876;12.300;2023-04-07T07:33:48;10.30;89.10
3727;DHT22;1879;45.876;12.300;2023-04-07T07:36:18;10.40;89.20
3727;DHT22;1879;45.876;12.300;2023-04-07T07:38:46;10.50;89.00
3727;DHT22;1879;45.876;12.300;2023-04-07T07:41:14;10.50;89.10
3727;DHT22;1879;45.876;12.300;2023-04-07T07:43:43;10.50;89.00
3727;DHT22;1879;45.876;12.300;2023-04-07T07:46:11;10.60;89.30
3727;DHT22;1879;45.876;12.300;2023-04-07T07:48:41;10.70;89.00
3727;DHT22;1879;45.876;12.300;2023-04-07T07:51:10;10.70;88.40
3727;DHT22;1879;45.876;12.300;2023-04-07T07:53:39;10.80;89.10
3727;DHT22;1879;45.876;12.300;2023-04-07T07:56:08;10.90;89.30
3727;DHT22;1879;45.876;12.300;2023-04-07T07:58:38;11.00;88.40
3727;DHT22;1879;45.876;12.300;2023-04-07T08:01:09;11.10;87.90
3727;DHT22;1879;45.876;12.300;2023-04-07T08:03:38;11.20;87.40
3727;DHT22;1879;45.876;12.300;2023-04-07T08:06:08;11.30;87.40
3727;DHT22;1879;45.876;12.300;2023-04-07T08:08:37;11.40;86.80
3727;DHT22;1879;45.876;12.300;2023-04-07T08:11:06;11.50;86.70
3727;DHT22;1879;45.876;12.300;2023-04-07T08:13:36;11.50;86.90
3727;DHT22;1879;45.876;12.300;2023-04-07T08:16:04;11.60;88.00
3727;DHT22;1879;45.876;12.300;2023-04-07T08:18:33;11.50;87.50
3727;DHT22;1879;45.876;12.300;2023-04-07T08:21:04;11.60;88.40
3727;DHT22;1879;45.876;12.300;2023-04-07T08:23:35;11.60;89.20
3727;DHT22;1879;45.876;12.300;2023-04-07T08:26:04;11.60;90.50
3727;DHT22;1879;45.876;12.300;2023-04-07T08:28:33;11.70;91.10
3727;DHT22;1879;45.876;12.300;2023-04-07T08:31:01;11.80;90.90
3727;DHT22;1879;45.876;12.300;2023-04-07T08:33:31;11.80;90.60
3727;DHT22;1879;45.876;12.300;2023-04-07T08:35:59;11.80;90.70
3727;DHT22;1879;45.876;12.300;2023-04-07T08:38:27;11.90;90.40
3727;DHT22;1879;45.876;12.300;2023-04-07T08:41:03;11.90;90.30
3727;DHT22;1879;45.876;12.300;2023-04-07T08:43:33;12.10;90.40
3727;DHT22;1879;45.876;12.300;2023-04-07T08:46:03;12.10;90.90
3727;DHT22;1879;45.876;12.300;2023-04-07T08:48:34;12.20;90.60
3727;DHT22;1879;45.876;12.300;2023-04-07T08:51:05;12.20;90.70
3727;DHT22;1879;45.876;12.300;2023-04-07T08:53:39;12.20;90.50
3727;DHT22;1879;45.876;12.300;2023-04-07T08:56:11;12.30;90.60
3727;DHT22;1879;45.876;12.300;2023-04-07T08:58:39;12.50;90.60
3727;DHT22;1879;45.876;12.300;2023-04-07T09:01:07;12.60;90.00
3727;DHT22;1879;45.876;12.300;2023-04-07T09:03:35;12.70;89.40
3727;DHT22;1879;45.876;12.300;2023-04-07T09:06:02;12.90;89.20
3727;DHT22;1879;45.876;12.300;2023-04-07T09:08:29;13.00;87.90
3727;DHT22;1879;45.876;12.300;2023-04-07T09:10:57;13.10;87.40
3727;DHT22;1879;45.876;12.300;2023-04-07T09:13:25;13.20;86.50
3727;DHT22;1879;45.876;12.300;2023-04-07T09:15:52;13.20;86.60
3727;DHT22;1879;45.876;12.300;2023-04-07T09:18:20;13.40;86.60
3727;DHT22;1879;45.876;12.300;2023-04-07T09:20:58;13.70;88.10
3727;DHT22;1879;45.876;12.300;2023-04-07T09:23:27;14.00;86.10
3727;DHT22;1879;45.876;12.300;2023-04-07T09:25:55;14.30;85.80
3727;DHT22;1879;45.876;12.300;2023-04-07T09:28:37;14.50;84.40
3727;DHT22;1879;45.876;12.300;2023-04-07T09:31:06;14.40;81.80
3727;DHT22;1879;45.876;12.300;2023-04-07T09:33:34;14.50;83.70
3727;DHT22;1879;45.876;12.300;2023-04-07T09:41:22;14.90;80.50
3727;DHT22;1879;45.876;12.300;2023-04-07T09:43:56;14.80;80.20
3727;DHT22;1879;45.876;12.300;2023-04-07T09:46:23;14.80;80.50
3727;DHT22;1879;45.876;12.300;2023-04-07T09:49:01;14.90;81.00
3727;DHT22;1879;45.876;12.300;2023-04-07T09:51:29;14.90;79.90
3727;DHT22;1879;45.876;12.300;2023-04-07T09:53:58;14.80;80.00
3727;DHT22;1879;45.876;12.300;2023-04-07T09:56:26;14.80;80.80
3727;DHT22;1879;45.876;12.300;2023-04-07T09:58:56;14.80;81.10
3727;DHT22;1879;45.876;12.300;2023-04-07T10:01:24;14.80;80.30
3727;DHT22;1879;45.876;12.300;2023-04-07T10:03:51;14.90;80.40
3727;DHT22;1879;45.876;12.300;2023-04-07T10:06:20;15.00;81.40
3727;DHT22;1879;45.876;12.300;2023-04-07T10:08:47;15.20;80.60
3727;DHT22;1879;45.876;12.300;2023-04-07T10:11:14;15.30;79.60
3727;DHT22;1879;45.876;12.300;2023-04-07T10:13:43;15.50;79.30
3727;DHT22;1879;45.876;12.300;2023-04-07T10:16:11;15.50;77.80
3727;DHT22;1879;45.876;12.300;2023-04-07T10:18:39;15.50;77.60
3727;DHT22;1879;45.876;12.300;2023-04-07T10:21:07;15.50;77.20
3727;DHT22;1879;45.876;12.300;2023-04-07T10:23:48;15.60;75.80
3727;DHT22;1879;45.876;12.300;2023-04-07T10:26:19;15.60;73.60
3727;DHT22;1879;45.876;12.300;2023-04-07T10:28:52;15.70;73.30
3727;DHT22;1879;45.876;12.300;2023-04-07T10:31:23;15.70;71.80
3727;DHT22;1879;45.876;12.300;2023-04-07T10:33:52;15.70;70.00
3727;DHT22;1879;45.876;12.300;2023-04-07T10:36:21;15.80;71.80
3727;DHT22;1879;45.876;12.300;2023-04-07T10:39:19;16.30;80.50
3727;DHT22;1879;45.876;12.300;2023-04-07T10:41:46;16.50;72.10
3727;DHT22;1879;45.876;12.300;2023-04-07T10:44:45;16.50;69.70
3727;DHT22;1879;45.876;12.300;2023-04-07T10:47:19;16.50;68.00
3727;DHT22;1879;45.876;12.300;2023-04-07T10:50:15;16.60;67.20
3727;DHT22;1879;45.876;12.300;2023-04-07T10:52:44;16.60;65.40
3727;DHT22;1879;45.876;12.300;2023-04-07T10:55:32;16.70;66.50
3727;DHT22;1879;45.876;12.300;2023-04-07T10:58:19;16.80;64.90
3727;DHT22;1879;45.876;12.300;2023-04-07T11:01:15;17.00;64.80
3727;DHT22;1879;45.876;12.300;2023-04-07T11:03:54;17.20;63.90
3727;DHT22;1879;45.876;12.300;2023-04-07T11:06:22;17.30;61.60
3727;DHT22;1879;45.876;12.300;2023-04-07T11:08:49;17.30;61.00
3727;DHT22;1879;45.876;12.300;2023-04-07T11:11:20;17.00;55.80
3727;DHT22;1879;45.876;12.300;2023-04-07T11:14:00;17.10;55.50
3727;DHT22;1879;45.876;12.300;2023-04-07T11:16:34;17.30;55.20
3727;DHT22;1879;45.876;12.300;2023-04-07T11:19:03;17.20;55.70
3727;DHT22;1879;45.876;12.300;2023-04-07T11:21:30;17.40;57.00
3727;DHT22;1879;45.876;12.300;2023-04-07T11:23:57;17.80;56.70
3727;DHT22;1879;45.876;12.300;2023-04-07T11:26:24;18.10;54.60
3727;DHT22;1879;45.876;12.300;2023-04-07T11:28:53;18.40;54.20
3727;DHT22;1879;45.876;12.300;2023-04-07T11:31:23;18.80;54.00
3727;DHT22;1879;45.876;12.300;2023-04-07T11:33:54;19.20;53.80
3727;DHT22;1879;45.876;12.300;2023-04-07T11:36:30;19.40;51.60
3727;DHT22;1879;45.876;12.300;2023-04-07T11:38:58;19.80;51.80
3727;DHT22;1879;45.876;12.300;2023-04-07T11:41:27;19.90;50.00
3727;DHT22;1879;45.876;12.300;2023-04-07T11:46:32;20.30;49.00
3727;DHT22;1879;45.876;12.300;2023-04-07T11:49:09;20.20;46.00
3727;DHT22;1879;45.876;12.300;2023-04-07T11:51:37;20.80;44.30
3727;DHT22;1879;45.876;12.300;2023-04-07T11:54:05;21.20;43.50
3727;DHT22;1879;45.876;12.300;2023-04-07T11:56:41;21.10;42.30
3727;DHT22;1879;45.876;12.300;2023-04-07T11:59:20;21.20;41.20
3727;DHT22;1879;45.876;12.300;2023-04-07T12:04:15;23.60;39.80
3727;DHT22;1879;45.876;12.300;2023-04-07T12:06:45;24.90;39.60
3727;DHT22;1879;45.876;12.300;2023-04-07T12:09:26;25.70;37.70
3727;DHT22;1879;45.876;12.300;2023-04-07T12:11:54;26.30;36.60
3727;DHT22;1879;45.876;12.300;2023-04-07T12:14:22;27.00;36.40
3727;DHT22;1879;45.876;12.300;2023-04-07T12:16:50;27.50;36.00
3727;DHT22;1879;45.876;12.300;2023-04-07T12:19:17;28.00;34.80
3727;DHT22;1879;45.876;12.300;2023-04-07T12:21:45;28.50;33.70
3727;DHT22;1879;45.876;12.300;2023-04-07T12:24:12;28.90;32.70
3727;DHT22;1879;45.876;12.300;2023-04-07T12:26:39;28.20;31.40
3727;DHT22;1879;45.876;12.300;2023-04-07T12:29:06;27.30;30.90
3727;DHT22;1879;45.876;12.300;2023-04-07T12:31:34;27.70;31.90
3727;DHT22;1879;45.876;12.300;2023-04-07T12:34:01;27.70;32.10
3727;DHT22;1879;45.876;12.300;2023-04-07T12:36:28;28.10;31.30
3727;DHT22;1879;45.876;12.300;2023-04-07T12:38:56;28.50;30.10
3727;DHT22;1879;45.876;12.300;2023-04-07T12:41:24;29.10;29.50
3727;DHT22;1879;45.876;12.300;2023-04-07T12:43:51;29.50;29.40
3727;DHT22;1879;45.876;12.300;2023-04-07T12:46:18;29.90;27.50
3727;DHT22;1879;45.876;12.300;2023-04-07T12:48:46;30.10;29.20
3727;DHT22;1879;45.876;12.300;2023-04-07T12:51:14;30.30;29.20
3727;DHT22;1879;45.876;12.300;2023-04-07T12:53:41;30.30;29.40
3727;DHT22;1879;45.876;12.300;2023-04-07T12:56:10;30.80;29.30
3727;DHT22;1879;45.876;12.300;2023-04-07T12:58:37;31.40;28.90
3727;DHT22;1879;45.876;12.300;2023-04-07T13:01:05;31.30;28.70
3727;DHT22;1879;45.876;12.300;2023-04-07T13:03:32;31.30;28.40
3727;DHT22;1879;45.876;12.300;2023-04-07T13:05:59;31.50;28.30
3727;DHT22;1879;45.876;12.300;2023-04-07T13:08:27;31.70;28.00
3727;DHT22;1879;45.876;12.300;2023-04-07T13:10:54;31.60;27.40
3727;DHT22;1879;45.876;12.300;2023-04-07T13:13:23;31.30;27.60
3727;DHT22;1879;45.876;12.300;2023-04-07T13:15:50;30.50;26.70
3727;DHT22;1879;45.876;12.300;2023-04-07T13:18:17;30.40;27.20
3727;DHT22;1879;45.876;12.300;2023-04-07T13:20:44;30.80;27.70
3727;DHT22;1879;45.876;12.300;2023-04-07T13:23:12;31.30;27.50
3727;DHT22;1879;45.876;12.300;2023-04-07T13:25:39;31.20;26.70
3727;DHT22;1879;45.876;12.300;2023-04-07T13:28:06;30.30;26.40
3727;DHT22;1879;45.876;12.300;2023-04-07T13:30:34;29.50;26.00
3727;DHT22;1879;45.876;12.300;2023-04-07T13:33:02;29.10;26.90
3727;DHT22;1879;45.876;12.300;2023-04-07T13:35:29;29.40;26.50
3727;DHT22;1879;45.876;12.300;2023-04-07T13:38:00;30.20;26.90
3727;DHT22;1879;45.876;12.300;2023-04-07T13:40:27;30.30;26.10
3727;DHT22;1879;45.876;12.300;2023-04-07T13:42:54;30.50;26.50
3727;DHT22;1879;45.876;12.300;2023-04-07T13:45:22;30.40;26.40
3727;DHT22;1879;45.876;12.300;2023-04-07T13:47:53;28.90;26.10
3727;DHT22;1879;45.876;12.300;2023-04-07T13:50:20;27.60;27.50
3727;DHT22;1879;45.876;12.300;2023-04-07T13:52:47;28.10;27.70
3727;DHT22;1879;45.876;12.300;2023-04-07T13:55:14;29.00;27.20
3727;DHT22;1879;45.876;12.300;2023-04-07T13:57:44;30.20;26.60
3727;DHT22;1879;45.876;12.300;2023-04-07T14:00:14;31.40;26.90
3727;DHT22;1879;45.876;12.300;2023-04-07T14:02:41;32.00;26.00
3727;DHT22;1879;45.876;12.300;2023-04-07T14:05:11;31.60;26.10
3727;DHT22;1879;45.876;12.300;2023-04-07T14:07:38;31.20;26.20
3727;DHT22;1879;45.876;12.300;2023-04-07T14:10:06;30.80;26.30
3727;DHT22;1879;45.876;12.300;2023-04-07T14:12:33;30.80;25.90
3727;DHT22;1879;45.876;12.300;2023-04-07T14:15:00;31.30;26.20
3727;DHT22;1879;45.876;12.300;2023-04-07T14:17:28;30.90;26.40
3727;DHT22;1879;45.876;12.300;2023-04-07T14:19:55;31.30;25.70
3727;DHT22;1879;45.876;12.300;2023-04-07T14:22:24;31.30;25.10
3727;DHT22;1879;45.876;12.300;2023-04-07T14:24:50;30.90;25.40
3727;DHT22;1879;45.876;12.300;2023-04-07T14:27:17;30.30;24.70
3727;DHT22;1879;45.876;12.300;2023-04-07T14:29:47;30.00;25.00
3727;DHT22;1879;45.876;12.300;2023-04-07T14:32:14;29.20;24.80
3727;DHT22;1879;45.876;12.300;2023-04-07T14:34:41;29.10;25.70
3727;DHT22;1879;45.876;12.300;2023-04-07T14:37:08;29.80;26.10
3727;DHT22;1879;45.876;12.300;2023-04-07T14:39:37;30.40;25.80
3727;DHT22;1879;45.876;12.300;2023-04-07T14:42:04;29.30;24.80
3727;DHT22;1879;45.876;12.300;2023-04-07T14:44:32;29.50;24.90
3727;DHT22;1879;45.876;12.300;2023-04-07T14:46:59;29.80;25.40
3727;DHT22;1879;45.876;12.300;2023-04-07T14:49:26;28.10;25.10
3727;DHT22;1879;45.876;12.300;2023-04-07T14:51:53;26.20;25.40
3727;DHT22;1879;45.876;12.300;2023-04-07T14:54:20;24.80;27.60
3727;DHT22;1879;45.876;12.300;2023-04-07T14:56:49;23.90;28.30
3727;DHT22;1879;45.876;12.300;2023-04-07T14:59:16;22.90;28.30
3727;DHT22;1879;45.876;12.300;2023-04-07T15:01:45;21.90;28.70
3727;DHT22;1879;45.876;12.300;2023-04-07T15:04:13;21.10;29.60
3727;DHT22;1879;45.876;12.300;2023-04-07T15:06:40;21.20;30.80
3727;DHT22;1879;45.876;12.300;2023-04-07T15:09:11;21.60;30.90
3727;DHT22;1879;45.876;12.300;2023-04-07T15:11:38;22.80;31.30
3727;DHT22;1879;45.876;12.300;2023-04-07T15:14:06;23.60;29.70
3727;DHT22;1879;45.876;12.300;2023-04-07T15:16:33;23.30;29.00
3727;DHT22;1879;45.876;12.300;2023-04-07T15:19:00;22.90;28.90
3727;DHT22;1879;45.876;12.300;2023-04-07T15:21:27;22.30;29.20
3727;DHT22;1879;45.876;12.300;2023-04-07T15:23:54;21.60;29.10
3727;DHT22;1879;45.876;12.300;2023-04-07T15:26:21;20.60;28.80
3727;DHT22;1879;45.876;12.300;2023-04-07T15:28:48;19.80;29.40
3727;DHT22;1879;45.876;12.300;2023-04-07T15:31:17;18.80;29.50
3727;DHT22;1879;45.876;12.300;2023-04-07T15:33:45;18.40;30.00
3727;DHT22;1879;45.876;12.300;2023-04-07T15:36:12;17.80;30.00
3727;DHT22;1879;45.876;12.300;2023-04-07T15:38:39;17.50;30.20
3727;DHT22;1879;45.876;12.300;2023-04-07T15:43:39;17.30;30.80
3727;DHT22;1879;45.876;12.300;2023-04-07T15:46:06;17.20;31.10
3727;DHT22;1879;45.876;12.300;2023-04-07T15:48:34;17.10;31.00
3727;DHT22;1879;45.876;12.300;2023-04-07T15:51:01;16.90;30.90
3727;DHT22;1879;45.876;12.300;2023-04-07T15:53:28;16.80;31.50
3727;DHT22;1879;45.876;12.300;2023-04-07T15:55:55;16.80;31.60
3727;DHT22;1879;45.876;12.300;2023-04-07T15:58:22;16.70;31.40
3727;DHT22;1879;45.876;12.300;2023-04-07T16:00:52;16.70;31.60
3727;DHT22;1879;45.876;12.300;2023-04-07T16:03:19;16.60;32.00
3727;DHT22;1879;45.876;12.300;2023-04-07T16:05:47;16.50;31.80
3727;DHT22;1879;45.876;12.300;2023-04-07T16:08:15;16.30;32.10
3727;DHT22;1879;45.876;12.300;2023-04-07T16:10:42;16.20;32.70
3727;DHT22;1879;45.876;12.300;2023-04-07T16:13:09;16.10;32.90
3727;DHT22;1879;45.876;12.300;2023-04-07T16:15:36;16.10;32.90
3727;DHT22;1879;45.876;12.300;2023-04-07T16:18:04;16.00;33.40